createdAt,value
2017-05-19T00:02:19.410Z,16.30
2017-05-19T00:04:47.655Z,16.40
2017-05-19T00:07:15.849Z,16.20
2017-05-19T00:09:44.058Z,16.10
2017-05-19T00:12:12.278Z,16.00
2017-05-19T00:14:40.480Z,15.90
2017-05-19T00:17:08.706Z,15.90
2017-05-19T00:19:36.915Z,15.80
2017-05-19T00:22:05.129Z,15.80
2017-05-19T00:24:33.339Z,15.80
2017-05-19T00:27:01.547Z,15.90
2017-05-19T00:29:29.783Z,16.00
2017-05-19T00:31:57.990Z,16.00
2017-05-19T00:34:26.195Z,16.10
2017-05-19T00:36:54.400Z,16.10
2017-05-19T00:39:22.602Z,16.10
2017-05-19T00:41:50.838Z,16.30
2017-05-19T00:44:19.056Z,16.40
2017-05-19T00:46:46.492Z,16.30
2017-05-19T00:49:14.700Z,16.50
2017-05-19T00:51:42.899Z,16.50
2017-05-19T00:54:11.397Z,16.60
2017-05-19T00:56:39.600Z,16.70
2017-05-19T00:59:07.048Z,16.70
2017-05-19T01:01:35.255Z,17.00
2017-05-19T01:04:03.467Z,17.00
2017-05-19T01:06:31.687Z,16.90
2017-05-19T01:08:59.895Z,16.90
2017-05-19T01:11:28.099Z,17.00
2017-05-19T01:13:56.325Z,16.90
2017-05-19T01:16:24.520Z,17.00
2017-05-19T01:18:52.761Z,16.90
2017-05-19T01:21:20.960Z,16.90
2017-05-19T01:23:49.215Z,16.90
2017-05-19T01:26:17.417Z,16.90
2017-05-19T01:28:45.666Z,16.80
2017-05-19T01:31:13.913Z,16.80
2017-05-19T01:33:42.116Z,16.80
2017-05-19T01:36:10.327Z,16.80
2017-05-19T01:38:38.527Z,16.90
2017-05-19T01:41:06.722Z,16.90
2017-05-19T01:43:34.939Z,16.90
2017-05-19T01:46:03.138Z,16.80
2017-05-19T01:48:31.344Z,16.80
2017-05-19T01:50:59.567Z,16.80
2017-05-19T01:53:27.780Z,16.90
2017-05-19T01:55:56.002Z,16.90
2017-05-19T01:58:24.219Z,16.80
2017-05-19T02:00:52.421Z,16.90
2017-05-19T02:03:20.642Z,17.00
2017-05-19T02:05:48.847Z,17.00
2017-05-19T02:08:17.074Z,17.00
2017-05-19T02:10:45.294Z,16.90
2017-05-19T02:13:13.508Z,16.90
2017-05-19T02:15:41.725Z,16.80
2017-05-19T02:18:09.922Z,16.90
2017-05-19T02:20:38.164Z,16.90
2017-05-19T02:23:06.368Z,17.00
2017-05-19T02:25:34.580Z,17.00
2017-05-19T02:28:02.839Z,17.10
2017-05-19T02:30:31.052Z,17.10
2017-05-19T02:32:59.294Z,17.00
2017-05-19T02:35:27.502Z,16.90
2017-05-19T02:37:55.714Z,16.80
2017-05-19T02:40:23.921Z,16.80
2017-05-19T02:42:52.140Z,16.90
2017-05-19T02:45:20.358Z,16.90
2017-05-19T02:47:48.559Z,16.90
2017-05-19T02:50:16.772Z,16.90
2017-05-19T02:52:45.006Z,16.80
2017-05-19T02:55:13.198Z,16.80
2017-05-19T02:57:41.435Z,16.80
2017-05-19T03:00:09.651Z,16.80
2017-05-19T03:02:38.117Z,16.80
2017-05-19T03:05:06.319Z,16.70
2017-05-19T03:07:34.512Z,16.80
2017-05-19T03:10:02.738Z,16.80
2017-05-19T03:12:30.948Z,16.80
2017-05-19T03:14:59.157Z,16.90
2017-05-19T03:17:27.374Z,17.00
2017-05-19T03:19:55.583Z,17.00
2017-05-19T03:22:23.792Z,17.10
2017-05-19T03:24:52.000Z,17.10
2017-05-19T03:27:20.206Z,17.10
2017-05-19T03:29:48.434Z,17.00
2017-05-19T03:32:16.644Z,17.00
2017-05-19T03:34:44.876Z,17.10
2017-05-19T03:37:13.078Z,17.10
2017-05-19T03:39:41.283Z,17.10
2017-05-19T03:42:09.511Z,17.20
2017-05-19T03:44:37.714Z,17.20
2017-05-19T03:47:05.915Z,17.20
2017-05-19T03:49:34.131Z,17.20
2017-05-19T03:52:02.339Z,17.20
2017-05-19T03:54:30.571Z,17.20
2017-05-19T03:56:58.787Z,17.20
2017-05-19T03:59:26.993Z,17.20
2017-05-19T04:01:55.203Z,17.30
2017-05-19T04:04:23.407Z,17.40
2017-05-19T04:06:51.639Z,17.40
2017-05-19T04:09:19.836Z,17.40
2017-05-19T04:11:48.043Z,17.50
2017-05-19T04:14:16.267Z,17.50
2017-05-19T04:16:44.470Z,17.60
2017-05-19T04:19:12.679Z,17.70
2017-05-19T04:21:40.945Z,17.60
2017-05-19T04:24:09.195Z,17.60
2017-05-19T04:26:37.445Z,17.50
2017-05-19T04:29:05.651Z,17.50
2017-05-19T04:31:33.870Z,17.50
2017-05-19T04:34:02.093Z,17.50
2017-05-19T04:36:30.296Z,17.50
2017-05-19T04:38:58.519Z,17.50
2017-05-19T04:41:25.963Z,17.50
2017-05-19T04:43:54.176Z,17.40
2017-05-19T04:46:22.385Z,17.40
2017-05-19T04:48:50.618Z,17.50
2017-05-19T04:51:18.836Z,17.40
2017-05-19T04:53:47.048Z,17.40
2017-05-19T04:56:14.489Z,17.40
2017-05-19T04:58:42.702Z,17.40
2017-05-19T05:01:10.910Z,17.30
2017-05-19T05:03:39.140Z,17.20
2017-05-19T05:06:07.362Z,17.20
2017-05-19T05:08:35.563Z,17.20
2017-05-19T05:11:03.771Z,17.30
2017-05-19T05:13:32.009Z,17.40
2017-05-19T05:16:00.250Z,17.40
2017-05-19T05:18:28.458Z,17.60
2017-05-19T05:20:55.928Z,17.50
2017-05-19T05:23:23.371Z,17.70
2017-05-19T05:25:50.821Z,17.80
2017-05-19T05:28:18.280Z,17.80
2017-05-19T05:30:45.729Z,17.60
2017-05-19T05:33:13.183Z,17.50
2017-05-19T05:35:41.395Z,17.40
2017-05-19T05:38:09.609Z,17.40
2017-05-19T05:40:37.095Z,17.40
2017-05-19T05:43:05.300Z,17.50
2017-05-19T05:45:33.527Z,17.60
2017-05-19T05:48:01.740Z,17.70
2017-05-19T05:50:29.974Z,17.80
2017-05-19T05:52:58.183Z,17.70
2017-05-19T05:55:26.391Z,17.60
2017-05-19T05:57:54.603Z,17.70
2017-05-19T06:00:22.827Z,17.70
2017-05-19T06:02:51.069Z,17.70
2017-05-19T06:05:19.291Z,17.70
2017-05-19T06:07:47.517Z,17.80
2017-05-19T06:10:15.792Z,17.90
2017-05-19T06:12:44.060Z,17.80
2017-05-19T06:15:12.274Z,17.70
2017-05-19T06:17:40.518Z,17.70
2017-05-19T06:20:08.732Z,17.80
2017-05-19T06:22:36.928Z,17.90
2017-05-19T06:25:05.190Z,18.00
2017-05-19T06:27:33.404Z,18.10
2017-05-19T06:30:01.639Z,18.10
2017-05-19T06:32:29.843Z,18.20
2017-05-19T06:34:58.065Z,18.30
2017-05-19T06:37:26.290Z,18.40
2017-05-19T06:39:54.607Z,18.40
2017-05-19T06:42:22.826Z,18.50
2017-05-19T06:44:51.056Z,18.70
2017-05-19T06:47:19.255Z,18.70
2017-05-19T06:49:47.507Z,18.70
2017-05-19T06:52:15.714Z,18.70
2017-05-19T06:54:43.995Z,18.60
2017-05-19T06:57:12.234Z,18.60
2017-05-19T06:59:40.451Z,18.70
2017-05-19T07:02:08.679Z,18.80
2017-05-19T07:04:36.894Z,18.70
2017-05-19T07:07:05.159Z,18.80
2017-05-19T07:09:33.355Z,19.00
2017-05-19T07:12:01.615Z,19.00
2017-05-19T07:14:29.852Z,19.20
2017-05-19T07:16:58.068Z,19.20
2017-05-19T07:19:26.328Z,19.00
2017-05-19T07:21:54.523Z,19.10
2017-05-19T07:24:58.648Z,19.20
2017-05-19T07:27:26.955Z,19.30
2017-05-19T07:29:55.164Z,19.60
2017-05-19T07:32:23.415Z,19.80
2017-05-19T07:34:51.647Z,20.10
2017-05-19T07:37:19.904Z,20.10
2017-05-19T07:39:48.573Z,20.00
2017-05-19T07:42:16.785Z,20.10
2017-05-19T07:44:45.004Z,20.20
2017-05-19T07:47:13.241Z,20.20
2017-05-19T07:49:41.526Z,20.20
2017-05-19T07:52:09.786Z,20.20
2017-05-19T07:54:38.058Z,20.20
2017-05-19T07:57:06.295Z,20.20
2017-05-19T07:59:34.528Z,20.20
2017-05-19T08:02:02.761Z,20.20
2017-05-19T08:04:30.979Z,20.30
2017-05-19T08:06:59.192Z,20.30
2017-05-19T08:09:27.512Z,20.30
2017-05-19T08:11:55.750Z,20.40
2017-05-19T08:14:23.955Z,20.40
2017-05-19T08:16:52.239Z,20.50
2017-05-19T08:19:20.479Z,20.50
2017-05-19T08:21:48.802Z,20.60
2017-05-19T08:24:17.039Z,20.70
2017-05-19T08:26:45.245Z,20.80
2017-05-19T08:29:13.463Z,20.90
2017-05-19T08:31:41.707Z,20.90
2017-05-19T08:34:09.922Z,20.90
2017-05-19T08:36:38.141Z,20.80
2017-05-19T08:39:06.571Z,20.70
2017-05-19T08:41:34.774Z,20.80
2017-05-19T08:44:03.020Z,20.90
2017-05-19T08:46:31.328Z,21.10
2017-05-19T08:48:59.545Z,21.20
2017-05-19T08:51:27.784Z,21.40
2017-05-19T08:53:56.025Z,21.60
2017-05-19T08:56:24.244Z,21.80
2017-05-19T08:58:52.470Z,21.80
2017-05-19T09:01:20.724Z,21.80
2017-05-19T09:03:48.978Z,21.90
2017-05-19T09:06:17.203Z,21.90
2017-05-19T09:08:45.496Z,21.80
2017-05-19T09:11:13.758Z,21.90
2017-05-19T09:13:42.082Z,22.00
2017-05-19T09:16:10.350Z,22.10
2017-05-19T09:18:38.568Z,22.10
2017-05-19T09:21:06.771Z,22.20
2017-05-19T09:23:35.071Z,22.40
2017-05-19T09:26:03.314Z,22.50
2017-05-19T09:28:31.602Z,22.50
2017-05-19T09:30:59.847Z,22.70
2017-05-19T09:33:28.148Z,23.00
2017-05-19T09:35:56.479Z,23.30
2017-05-19T09:38:24.873Z,23.40
2017-05-19T09:40:53.197Z,23.60
2017-05-19T09:43:21.447Z,23.90
2017-05-19T09:45:49.744Z,24.20
2017-05-19T09:48:17.269Z,24.20
2017-05-19T09:50:45.534Z,24.30
2017-05-19T09:53:13.794Z,24.10
2017-05-19T09:55:42.013Z,23.70
2017-05-19T09:58:10.218Z,23.30
2017-05-19T10:00:38.443Z,23.00
2017-05-19T10:03:06.658Z,23.00
2017-05-19T10:05:34.907Z,23.00
2017-05-19T10:08:03.183Z,22.90
2017-05-19T10:10:31.440Z,22.80
2017-05-19T10:12:59.681Z,22.70
2017-05-19T10:15:27.912Z,22.90
2017-05-19T10:17:56.197Z,23.20
2017-05-19T10:20:24.418Z,23.50
2017-05-19T10:22:52.668Z,23.80
2017-05-19T10:25:20.903Z,24.10
2017-05-19T10:27:49.126Z,24.60
2017-05-19T10:30:17.560Z,24.70
2017-05-19T10:32:46.036Z,24.70
2017-05-19T10:35:14.289Z,24.90
2017-05-19T10:37:42.598Z,24.60
2017-05-19T10:40:10.883Z,24.40
2017-05-19T10:42:39.102Z,24.30
2017-05-19T10:45:07.524Z,23.90
2017-05-19T10:47:35.806Z,23.60
2017-05-19T10:50:04.043Z,23.60
2017-05-19T10:52:32.355Z,23.60
2017-05-19T10:55:00.631Z,23.20
2017-05-19T10:57:28.839Z,23.10
2017-05-19T10:59:57.086Z,23.10
2017-05-19T11:02:25.370Z,23.30
2017-05-19T11:04:53.651Z,23.30
2017-05-19T11:07:21.899Z,23.30
2017-05-19T11:09:50.119Z,23.30
2017-05-19T11:12:18.357Z,23.50
2017-05-19T11:14:46.771Z,23.60
2017-05-19T11:17:15.179Z,23.40
2017-05-19T11:19:43.379Z,23.10
2017-05-19T11:22:11.655Z,23.00
2017-05-19T11:24:39.911Z,23.10
2017-05-19T11:27:08.240Z,23.10
2017-05-19T11:29:36.595Z,22.90
2017-05-19T11:32:04.920Z,22.90
2017-05-19T11:34:33.175Z,22.80
2017-05-19T11:37:01.507Z,22.50
2017-05-19T11:39:29.832Z,22.30
2017-05-19T11:41:58.035Z,22.30
2017-05-19T11:44:26.304Z,21.10
2017-05-19T11:46:54.507Z,22.30
2017-05-19T11:49:22.723Z,22.50
2017-05-19T11:51:51.055Z,22.60
2017-05-19T11:54:19.283Z,22.80
2017-05-19T11:56:47.510Z,23.00
2017-05-19T11:59:15.739Z,22.90
2017-05-19T12:01:43.951Z,22.70
2017-05-19T12:04:12.244Z,22.60
2017-05-19T12:06:40.508Z,22.50
2017-05-19T12:09:08.723Z,22.50
2017-05-19T12:11:40.919Z,22.50
2017-05-19T12:14:09.191Z,22.70
2017-05-19T12:16:37.547Z,22.70
2017-05-19T12:19:05.799Z,22.60
2017-05-19T12:21:34.057Z,22.50
2017-05-19T12:24:02.323Z,22.50
2017-05-19T12:26:30.565Z,22.60
2017-05-19T12:28:58.793Z,22.40
2017-05-19T12:31:26.999Z,22.30
2017-05-19T12:33:55.327Z,22.20
2017-05-19T12:36:23.580Z,22.20
2017-05-19T12:38:51.047Z,22.10
2017-05-19T12:41:19.355Z,22.50
2017-05-19T12:43:47.714Z,22.70
2017-05-19T12:46:16.193Z,22.60
2017-05-19T12:48:44.583Z,22.50
2017-05-19T12:51:12.895Z,22.40
2017-05-19T12:53:41.328Z,22.50
2017-05-19T12:56:09.546Z,22.60
2017-05-19T12:58:37.780Z,22.70
2017-05-19T13:01:06.048Z,22.70
2017-05-19T13:03:34.356Z,22.80
2017-05-19T13:06:02.614Z,22.80
2017-05-19T13:08:30.886Z,22.80
2017-05-19T13:10:59.124Z,22.70
2017-05-19T13:13:27.434Z,22.60
2017-05-19T13:15:55.694Z,22.50
2017-05-19T13:18:23.899Z,22.50
2017-05-19T13:20:52.174Z,22.50
2017-05-19T13:23:20.399Z,22.20
2017-05-19T13:25:48.612Z,22.10
2017-05-19T13:28:16.106Z,22.10
2017-05-19T13:30:44.330Z,22.10
2017-05-19T13:33:12.631Z,22.10
2017-05-19T13:35:40.878Z,22.10
2017-05-19T13:38:09.128Z,22.10
2017-05-19T13:40:37.419Z,22.00
2017-05-19T13:43:05.639Z,21.90
2017-05-19T13:45:33.870Z,21.90
2017-05-19T13:48:02.177Z,22.00
2017-05-19T13:50:30.603Z,22.00
2017-05-19T13:52:59.227Z,21.90
2017-05-19T13:55:27.463Z,22.00
2017-05-19T13:57:55.676Z,21.90
2017-05-19T14:00:23.908Z,21.90
2017-05-19T14:02:52.224Z,21.90
2017-05-19T14:05:20.479Z,22.00
2017-05-19T14:07:48.797Z,22.20
2017-05-19T14:10:17.011Z,22.40
2017-05-19T14:12:45.423Z,22.60
2017-05-19T14:15:13.655Z,22.60
2017-05-19T14:17:41.972Z,22.60
2017-05-19T14:20:10.318Z,22.60
2017-05-19T14:22:38.626Z,22.60
2017-05-19T14:25:06.857Z,22.40
2017-05-19T14:27:35.079Z,22.30
2017-05-19T14:30:03.456Z,22.30
2017-05-19T14:32:31.729Z,22.30
2017-05-19T14:34:59.948Z,22.30
2017-05-19T14:37:28.174Z,22.30
2017-05-19T14:39:56.391Z,22.30
2017-05-19T14:42:24.639Z,22.40
2017-05-19T14:44:52.857Z,22.50
2017-05-19T14:47:21.076Z,22.50
2017-05-19T14:49:49.372Z,22.50
2017-05-19T14:52:17.626Z,22.60
2017-05-19T14:54:45.879Z,22.60
2017-05-19T14:57:14.099Z,22.70
2017-05-19T14:59:42.325Z,22.80
2017-05-19T15:02:10.627Z,22.70
2017-05-19T15:04:38.860Z,22.60
2017-05-19T15:07:07.144Z,22.60
2017-05-19T15:09:35.480Z,22.70
2017-05-19T15:12:03.730Z,22.50
2017-05-19T15:14:32.003Z,22.30
2017-05-19T15:17:00.271Z,22.20
2017-05-19T15:19:28.547Z,22.00
2017-05-19T15:21:56.904Z,22.00
2017-05-19T15:24:25.117Z,22.00
2017-05-19T15:26:53.368Z,22.20
2017-05-19T15:29:21.651Z,22.30
2017-05-19T15:31:49.930Z,21.40
2017-05-19T15:34:18.131Z,20.70
2017-05-19T15:36:46.379Z,20.30
2017-05-19T15:39:14.665Z,20.20
2017-05-19T15:41:43.103Z,20.00
2017-05-19T15:44:11.339Z,19.80
2017-05-19T15:46:39.567Z,19.70
2017-05-19T15:49:07.801Z,19.50
2017-05-19T15:51:36.026Z,19.40
2017-05-19T15:54:04.283Z,19.30
2017-05-19T15:56:32.524Z,19.30
2017-05-19T15:59:00.748Z,19.10
2017-05-19T16:01:28.992Z,19.00
2017-05-19T16:03:57.239Z,19.00
2017-05-19T16:06:25.475Z,19.00
2017-05-19T16:08:53.781Z,19.00
2017-05-19T16:11:21.999Z,19.00
2017-05-19T16:13:50.212Z,19.00
2017-05-19T16:16:18.446Z,19.00
2017-05-19T16:18:46.663Z,18.90
2017-05-19T16:21:14.906Z,18.80
2017-05-19T16:23:43.121Z,18.70
2017-05-19T16:26:11.387Z,18.60
2017-05-19T16:28:39.648Z,18.50
2017-05-19T16:31:07.879Z,18.50
2017-05-19T16:33:36.142Z,18.40
2017-05-19T16:36:04.361Z,18.30
2017-05-19T16:38:32.705Z,18.20
2017-05-19T16:41:01.024Z,18.20
2017-05-19T16:43:29.247Z,18.00
2017-05-19T16:45:57.487Z,17.90
2017-05-19T16:48:25.711Z,17.90
2017-05-19T16:50:53.919Z,17.70
2017-05-19T16:53:22.279Z,17.50
2017-05-19T16:55:50.619Z,17.30
2017-05-19T16:58:18.889Z,17.10
2017-05-19T17:00:47.106Z,16.90
2017-05-19T17:03:15.330Z,16.80
2017-05-19T17:05:43.574Z,16.70
2017-05-19T17:08:11.854Z,16.30
2017-05-19T17:10:40.080Z,16.10
2017-05-19T17:13:08.375Z,16.00
2017-05-19T17:15:36.596Z,15.80
2017-05-19T17:18:04.943Z,15.70
2017-05-19T17:20:33.166Z,15.60
2017-05-19T17:23:01.436Z,15.60
2017-05-19T17:25:29.656Z,15.50
2017-05-19T17:27:57.964Z,15.30
2017-05-19T17:30:26.243Z,15.20
2017-05-19T17:32:54.495Z,15.00
2017-05-19T17:35:22.775Z,14.80
2017-05-19T17:37:51.002Z,14.80
2017-05-19T17:40:19.234Z,14.70
2017-05-19T17:42:47.501Z,13.70
2017-05-19T17:45:15.760Z,14.60
2017-05-19T17:47:44.020Z,14.50
2017-05-19T17:50:12.345Z,14.50
2017-05-19T17:52:40.558Z,14.50
2017-05-19T17:55:08.868Z,14.40
2017-05-19T17:57:37.161Z,14.40
2017-05-19T18:00:05.392Z,14.40
2017-05-19T18:02:33.705Z,14.30
2017-05-19T18:05:01.920Z,14.20
2017-05-19T18:07:30.151Z,14.30
2017-05-19T18:09:58.438Z,14.20
2017-05-19T18:12:26.726Z,14.20
2017-05-19T18:14:54.998Z,14.20
2017-05-19T18:17:23.337Z,14.20
2017-05-19T18:19:51.554Z,14.10
2017-05-19T18:22:19.762Z,14.10
2017-05-19T18:24:48.155Z,14.10
2017-05-19T18:27:16.733Z,14.00
2017-05-19T18:29:45.055Z,13.90
2017-05-19T18:32:13.325Z,13.90
2017-05-19T18:34:41.534Z,13.80
2017-05-19T18:37:09.795Z,13.70
2017-05-19T18:39:38.018Z,13.70
2017-05-19T18:42:06.238Z,13.70
2017-05-19T18:44:34.491Z,13.60
2017-05-19T18:47:02.712Z,13.60
2017-05-19T18:49:31.247Z,13.50
2017-05-19T18:51:59.534Z,13.50
2017-05-19T18:54:27.791Z,13.40
2017-05-19T18:56:56.035Z,13.20
2017-05-19T18:59:24.348Z,13.20
2017-05-19T19:01:52.595Z,13.20
2017-05-19T19:04:20.894Z,13.10
2017-05-19T19:06:49.126Z,13.10
2017-05-19T19:09:17.348Z,13.10
2017-05-19T19:11:45.611Z,13.10
2017-05-19T19:14:13.831Z,13.00
2017-05-19T19:16:42.047Z,13.00
2017-05-19T19:19:10.344Z,13.00
2017-05-19T19:21:38.580Z,13.00
2017-05-19T19:24:06.802Z,13.00
2017-05-19T19:26:35.085Z,13.00
2017-05-19T19:29:03.347Z,13.00
2017-05-19T19:31:31.592Z,12.90
2017-05-19T19:33:59.810Z,12.90
2017-05-19T19:36:28.086Z,12.90
2017-05-19T19:38:56.328Z,12.90
2017-05-19T19:41:24.631Z,12.80
2017-05-19T19:43:52.846Z,12.80
2017-05-19T19:46:21.159Z,12.70
2017-05-19T19:48:49.374Z,12.70
2017-05-19T19:51:17.772Z,12.70
2017-05-19T19:53:45.998Z,12.70
2017-05-19T19:56:14.263Z,12.70
2017-05-19T19:58:42.547Z,12.70
2017-05-19T20:01:10.767Z,12.60
2017-05-19T20:03:39.111Z,12.60
2017-05-19T20:06:07.383Z,12.60
2017-05-19T20:08:35.660Z,12.60
2017-05-19T20:11:03.915Z,12.60
2017-05-19T20:13:32.175Z,12.60
2017-05-19T20:16:00.614Z,12.50
2017-05-19T20:18:28.892Z,12.50
2017-05-19T20:20:57.150Z,12.50
2017-05-19T20:23:25.414Z,12.50
2017-05-19T20:25:53.732Z,12.50
2017-05-19T20:28:21.983Z,12.50
2017-05-19T20:30:50.279Z,12.50
2017-05-19T20:33:18.623Z,12.50
2017-05-19T20:35:47.018Z,12.50
2017-05-19T20:38:15.229Z,12.50
2017-05-19T20:40:43.496Z,12.50
2017-05-19T20:43:11.730Z,12.50
2017-05-19T20:45:40.017Z,12.50
2017-05-19T20:48:08.249Z,12.60
2017-05-19T20:50:36.480Z,12.50
2017-05-19T20:53:04.736Z,12.50
2017-05-19T20:55:32.955Z,12.50
2017-05-19T20:58:01.296Z,12.50
2017-05-19T21:00:29.565Z,12.50
2017-05-19T21:02:57.807Z,12.50
2017-05-19T21:05:26.065Z,12.50
2017-05-19T21:07:54.305Z,12.50
2017-05-19T21:10:22.527Z,12.50
2017-05-19T21:12:50.823Z,12.40
2017-05-19T21:15:19.152Z,12.40
2017-05-19T21:17:47.369Z,12.40
2017-05-19T21:20:15.586Z,12.40
2017-05-19T21:22:43.908Z,12.40
2017-05-19T21:25:12.156Z,12.40
2017-05-19T21:27:40.360Z,12.40
2017-05-19T21:30:08.743Z,12.40
2017-05-19T21:32:36.958Z,12.40
2017-05-19T21:35:05.185Z,12.40
2017-05-19T21:37:33.430Z,12.30
2017-05-19T21:40:01.644Z,12.30
2017-05-19T21:42:29.921Z,12.30
2017-05-19T21:44:58.138Z,12.30
2017-05-19T21:47:26.446Z,12.30
2017-05-19T21:49:54.706Z,12.30
2017-05-19T21:52:23.016Z,12.20
2017-05-19T21:54:51.276Z,12.30
2017-05-19T21:57:19.555Z,12.20
2017-05-19T21:59:47.767Z,12.20
2017-05-19T22:02:16.102Z,12.20
2017-05-19T22:04:44.325Z,12.20
2017-05-19T22:07:12.633Z,12.20
2017-05-19T22:09:40.847Z,12.30
2017-05-19T22:12:09.207Z,12.30
2017-05-19T22:14:37.447Z,12.20
2017-05-19T22:17:05.766Z,12.10
2017-05-19T22:19:33.975Z,12.10
2017-05-19T22:22:02.231Z,12.10
2017-05-19T22:24:30.479Z,12.00
2017-05-19T22:26:58.719Z,12.00
2017-05-19T22:29:26.949Z,12.00
2017-05-19T22:31:55.203Z,12.00
2017-05-19T22:34:23.582Z,12.00
2017-05-19T22:36:51.819Z,12.00
2017-05-19T22:39:20.108Z,12.00
2017-05-19T22:41:48.303Z,12.00
2017-05-19T22:44:16.514Z,12.00
2017-05-19T22:46:44.779Z,12.00
2017-05-19T22:49:13.000Z,12.00
2017-05-19T22:51:41.302Z,12.10
2017-05-19T22:54:09.519Z,12.10
2017-05-19T22:56:37.750Z,12.00
2017-05-19T22:59:05.983Z,12.00
2017-05-19T23:01:34.198Z,12.00
2017-05-19T23:04:02.431Z,12.10
2017-05-19T23:06:30.645Z,12.00
2017-05-19T23:08:58.858Z,12.00
2017-05-19T23:11:27.207Z,12.00
2017-05-19T23:13:55.480Z,12.00
2017-05-19T23:16:23.706Z,12.00
2017-05-19T23:18:51.926Z,12.00
2017-05-19T23:21:20.220Z,12.00
2017-05-19T23:23:48.484Z,12.10
2017-05-19T23:26:16.763Z,12.00
2017-05-19T23:28:45.033Z,12.00
2017-05-19T23:31:13.311Z,12.00
2017-05-19T23:33:41.533Z,12.00
2017-05-19T23:36:09.869Z,12.00
2017-05-19T23:38:38.231Z,12.00
2017-05-19T23:41:06.615Z,12.00
2017-05-19T23:43:34.851Z,12.00
2017-05-19T23:46:03.054Z,11.90
2017-05-19T23:48:31.336Z,11.90
2017-05-19T23:50:59.551Z,11.90
2017-05-19T23:53:27.878Z,11.90
2017-05-19T23:55:56.093Z,11.80
2017-05-19T23:58:24.310Z,11.80
